Time;durP1;ratioP1;P1;durP2;ratioP2;P2;SDS_P1;SDS_P2;PMS_P1;PMS_P2;Temp;Humidity;BMP_temperature;BMP_pressure;BME280_temperature;BME280_humidity;BME280_pressure;Samples;Min_cycle;Max_cycle;Signal;HPM_P1;HPM_P2
2022/05/01 00:00:36;;;;;;;16.77;14.03;;;14.40;99.90;;;;;;5006742;28;20258;-75
2022/05/01 00:03:02;;;;;;;18.77;14.53;;;14.50;99.90;;;;;;5008614;28;21283;-74
2022/05/01 00:05:29;;;;;;;20.50;15.07;;;14.60;99.90;;;;;;5009825;28;20229;-74
2022/05/01 00:07:55;;;;;;;18.87;15.20;;;14.60;99.90;;;;;;5010749;28;20172;-76
2022/05/01 00:10:20;;;;;;;17.50;14.67;;;14.60;99.90;;;;;;5006515;28;20440;-75
2022/05/01 00:12:46;;;;;;;20.23;15.97;;;14.60;99.90;;;;;;5010170;28;20326;-75
2022/05/01 00:15:12;;;;;;;19.07;15.80;;;14.30;99.90;;;;;;5008026;28;20178;-76
2022/05/01 00:17:37;;;;;;;21.13;17.53;;;14.50;99.90;;;;;;5010596;28;20228;-74
2022/05/01 00:20:04;;;;;;;16.97;14.00;;;14.40;99.90;;;;;;5009595;28;20633;-74
2022/05/01 00:22:29;;;;;;;19.20;15.10;;;14.50;99.90;;;;;;5014559;28;20303;-74
2022/05/01 00:24:55;;;;;;;19.43;15.43;;;14.60;99.90;;;;;;5009094;28;20534;-73
2022/05/01 00:27:20;;;;;;;22.00;16.07;;;14.60;99.90;;;;;;5009934;28;20219;-73
2022/05/01 00:29:46;;;;;;;20.50;15.07;;;14.60;99.90;;;;;;5013645;28;21085;-74
2022/05/01 00:32:11;;;;;;;17.47;14.67;;;14.40;99.90;;;;;;5007573;28;20196;-75
2022/05/01 00:37:21;;;;;;;18.77;16.07;;;14.50;99.90;;;;;;5007415;28;20250;-75
2022/05/01 00:39:47;;;;;;;16.70;15.00;;;14.40;99.90;;;;;;5009450;28;20440;-75
2022/05/01 00:42:13;;;;;;;18.87;15.20;;;14.40;99.90;;;;;;5005223;28;20291;-75
2022/05/01 00:44:39;;;;;;;19.27;16.70;;;14.50;99.90;;;;;;5010800;28;20614;-75
2022/05/01 00:47:04;;;;;;;20.97;15.77;;;14.50;99.90;;;;;;5007598;28;20239;-75
2022/05/01 00:49:30;;;;;;;17.77;15.47;;;14.10;99.90;;;;;;5007840;28;20930;-75
2022/05/01 00:52:08;;;;;;;18.40;14.77;;;14.30;99.90;;;;;;5014121;28;20183;-75
2022/05/01 00:54:36;;;;;;;17.73;15.30;;;14.50;99.90;;;;;;5010290;28;20193;-75
2022/05/01 00:57:04;;;;;;;17.23;14.57;;;14.60;99.90;;;;;;5013023;28;20492;-75
2022/05/01 00:59:30;;;;;;;20.10;17.17;;;14.50;99.90;;;;;;5008803;28;20439;-75
2022/05/01 01:01:56;;;;;;;20.23;14.73;;;14.40;99.90;;;;;;5028470;28;20450;-74
2022/05/01 01:04:23;;;;;;;17.57;14.80;;;14.40;99.90;;;;;;5010045;28;20438;-74
2022/05/01 01:06:49;;;;;;;18.00;15.10;;;14.30;99.90;;;;;;5010616;28;20538;-75
2022/05/01 01:09:16;;;;;;;16.87;14.00;;;14.30;99.90;;;;;;5008322;28;20439;-74
2022/05/01 01:11:43;;;;;;;20.70;16.60;;;14.40;99.90;;;;;;5002862;28;21125;-75
2022/05/01 01:14:10;;;;;;;18.20;15.90;;;14.20;99.90;;;;;;5007642;28;20494;-75
2022/05/01 01:16:37;;;;;;;18.23;14.20;;;14.10;99.90;;;;;;5005956;28;20981;-75
2022/05/01 01:19:08;;;;;;;17.20;15.40;;;14.10;99.90;;;;;;5007431;28;20494;-74
2022/05/01 01:21:34;;;;;;;19.40;16.00;;;14.20;99.90;;;;;;5009003;28;20442;-74
2022/05/01 01:24:03;;;;;;;17.00;14.97;;;14.40;99.90;;;;;;5009197;28;20530;-75
2022/05/01 01:26:29;;;;;;;17.63;15.70;;;14.40;99.90;;;;;;5011352;28;20558;-74
2022/05/01 01:28:57;;;;;;;18.70;16.10;;;14.50;99.90;;;;;;5010291;28;21020;-74
2022/05/01 01:31:41;;;;;;;16.27;14.40;;;14.60;99.90;;;;;;5008646;28;20518;-75
2022/05/01 01:34:11;;;;;;;18.83;14.50;;;14.60;99.90;;;;;;5009052;28;20505;-74
2022/05/01 01:36:38;;;;;;;23.03;15.13;;;14.50;99.90;;;;;;5013810;28;20504;-75
2022/05/01 01:39:05;;;;;;;16.20;14.50;;;14.50;99.90;;;;;;5008662;28;20436;-75
2022/05/01 01:41:31;;;;;;;19.97;16.70;;;14.50;99.90;;;;;;5010341;28;20446;-75
2022/05/01 01:43:59;;;;;;;20.17;16.93;;;14.40;99.90;;;;;;5009767;28;21305;-74
2022/05/01 01:46:25;;;;;;;20.23;15.70;;;14.30;99.90;;;;;;5007984;28;20478;-74
2022/05/01 01:48:51;;;;;;;21.23;14.37;;;14.40;99.90;;;;;;5010715;28;21501;-73
2022/05/01 01:51:17;;;;;;;17.97;14.80;;;14.40;99.90;;;;;;5007356;28;20454;-73
2022/05/01 01:53:43;;;;;;;24.63;16.50;;;14.40;99.90;;;;;;5008483;28;20459;-73
2022/05/01 01:56:09;;;;;;;21.53;16.57;;;14.20;99.90;;;;;;5008538;28;20835;-75
2022/05/01 01:58:36;;;;;;;22.23;16.57;;;14.30;99.90;;;;;;5009858;28;20196;-76
2022/05/01 02:01:05;;;;;;;19.40;15.33;;;14.20;99.90;;;;;;5003662;28;20516;-74
2022/05/01 02:03:33;;;;;;;18.60;14.83;;;14.20;99.90;;;;;;5006602;28;20478;-75
2022/05/01 02:05:59;;;;;;;17.90;14.87;;;14.10;99.90;;;;;;5010501;28;20469;-74
2022/05/01 02:08:25;;;;;;;18.80;15.30;;;14.10;99.90;;;;;;5007487;28;20458;-75
2022/05/01 02:10:51;;;;;;;20.80;16.27;;;14.30;99.90;;;;;;5008082;28;20436;-76
2022/05/01 02:13:17;;;;;;;21.37;15.73;;;14.40;99.90;;;;;;5005296;28;20470;-75
2022/05/01 02:15:43;;;;;;;18.83;15.20;;;14.10;99.90;;;;;;5010198;28;20193;-75
2022/05/01 02:18:09;;;;;;;17.83;14.50;;;13.90;99.90;;;;;;5010542;28;20444;-75
2022/05/01 02:23:21;;;;;;;17.17;15.17;;;14.10;99.90;;;;;;5006033;28;21031;-74
2022/05/01 02:25:50;;;;;;;18.40;16.40;;;14.30;99.90;;;;;;5013293;28;20463;-75
2022/05/01 02:28:17;;;;;;;21.33;15.90;;;13.70;99.90;;;;;;5008207;28;20431;-73
2022/05/01 02:30:43;;;;;;;19.97;16.50;;;13.10;99.90;;;;;;5007980;28;20439;-76
2022/05/01 02:33:08;;;;;;;19.73;16.27;;;13.10;99.90;;;;;;5011680;28;20513;-74
2022/05/01 02:35:38;;;;;;;18.37;15.27;;;13.10;99.90;;;;;;5006490;28;20193;-73
2022/05/01 02:38:04;;;;;;;22.03;15.70;;;13.30;99.90;;;;;;5004372;28;20466;-74
2022/05/01 02:40:33;;;;;;;21.43;16.27;;;13.30;99.90;;;;;;5007229;28;20450;-74
2022/05/01 02:42:59;;;;;;;20.93;16.83;;;13.20;99.90;;;;;;5009083;28;20457;-75
2022/05/01 02:45:26;;;;;;;22.70;16.47;;;13.00;99.90;;;;;;5026188;28;20455;-75
2022/05/01 02:47:52;;;;;;;19.50;16.60;;;13.20;99.90;;;;;;5010637;28;21021;-75
2022/05/01 02:50:17;;;;;;;23.70;18.67;;;12.90;99.90;;;;;;5012386;28;20439;-75
2022/05/01 02:52:43;;;;;;;22.43;17.00;;;12.60;99.90;;;;;;5008292;28;20212;-75
2022/05/01 02:55:09;;;;;;;19.90;17.43;;;12.50;99.90;;;;;;5012162;28;20189;-75
2022/05/01 02:57:35;;;;;;;21.70;17.90;;;12.50;99.90;;;;;;5009553;28;20601;-73
2022/05/01 03:00:01;;;;;;;25.80;16.70;;;12.30;99.90;;;;;;5010610;28;20493;-74
2022/05/01 03:02:27;;;;;;;19.53;16.60;;;12.30;99.90;;;;;;5012427;28;20906;-75
2022/05/01 03:04:52;;;;;;;24.07;18.70;;;12.80;99.90;;;;;;5010161;28;20443;-74
2022/05/01 03:07:18;;;;;;;25.07;18.93;;;12.80;99.90;;;;;;5010477;28;20307;-74
2022/05/01 03:09:44;;;;;;;27.80;19.97;;;12.50;99.90;;;;;;5012630;28;20195;-75
2022/05/01 03:12:09;;;;;;;23.47;18.20;;;12.50;99.90;;;;;;5008689;28;20559;-75
2022/05/01 03:14:35;;;;;;;19.80;16.63;;;12.60;99.90;;;;;;5008292;28;20195;-75
2022/05/01 03:17:01;;;;;;;24.63;17.30;;;12.70;99.90;;;;;;5013864;28;20280;-75
2022/05/01 03:22:10;;;;;;;19.50;17.13;;;13.40;99.90;;;;;;5010999;28;20223;-75
2022/05/01 03:24:36;;;;;;;21.80;17.47;;;13.00;99.90;;;;;;5010891;28;20435;-75
2022/05/01 03:27:03;;;;;;;26.43;18.10;;;12.70;99.90;;;;;;5012047;28;20216;-75
2022/05/01 03:29:29;;;;;;;22.37;18.60;;;12.50;99.90;;;;;;5010592;28;20447;-76
2022/05/01 03:31:54;;;;;;;30.73;19.07;;;12.40;99.90;;;;;;5010669;28;21065;-75
2022/05/01 03:34:22;;;;;;;22.33;17.73;;;12.00;99.90;;;;;;5011662;28;20194;-74
2022/05/01 03:36:48;;;;;;;23.23;17.93;;;12.30;99.90;;;;;;5015143;28;20220;-74
2022/05/01 03:39:15;;;;;;;20.93;17.23;;;12.40;99.90;;;;;;5007364;28;21068;-76
2022/05/01 03:41:41;;;;;;;23.23;18.97;;;12.90;99.90;;;;;;5008616;28;20562;-74
2022/05/01 03:44:10;;;;;;;18.03;16.07;;;12.90;99.90;;;;;;5006474;28;20443;-75
2022/05/01 03:46:41;;;;;;;19.27;16.30;;;13.10;99.90;;;;;;5009549;28;20464;-74
2022/05/01 03:49:09;;;;;;;22.23;17.70;;;13.20;99.90;;;;;;5007900;28;20444;-75
2022/05/01 03:51:35;;;;;;;24.30;15.73;;;13.10;99.90;;;;;;5010301;28;20435;-74
2022/05/01 03:54:02;;;;;;;17.40;15.30;;;13.10;99.90;;;;;;5005191;28;20498;-73
2022/05/01 03:56:29;;;;;;;20.60;15.17;;;13.30;99.90;;;;;;5004999;28;20440;-74
2022/05/01 03:58:55;;;;;;;20.00;14.23;;;13.30;99.90;;;;;;5013017;28;20553;-73
2022/05/01 04:01:20;;;;;;;22.40;15.10;;;13.40;99.90;;;;;;5008835;28;21514;-75
2022/05/01 04:03:46;;;;;;;16.80;14.47;;;13.20;99.90;;;;;;5006139;28;20262;-74
2022/05/01 04:06:12;;;;;;;18.33;14.80;;;13.40;99.90;;;;;;5009417;28;20224;-75
2022/05/01 04:08:37;;;;;;;21.97;16.00;;;13.40;99.90;;;;;;5010094;28;20220;-74
2022/05/01 04:11:03;;;;;;;19.40;15.07;;;13.50;99.90;;;;;;5010415;28;20208;-74
2022/05/01 04:13:29;;;;;;;19.60;15.70;;;13.60;99.90;;;;;;5011243;28;20209;-74
2022/05/01 04:15:54;;;;;;;21.07;15.40;;;13.60;99.90;;;;;;5022048;28;20443;-75
2022/05/01 04:18:21;;;;;;;22.03;16.37;;;13.50;99.90;;;;;;5007046;28;20188;-74
2022/05/01 04:20:47;;;;;;;20.30;16.70;;;13.70;99.90;;;;;;5014206;28;20594;-74
2022/05/01 04:23:13;;;;;;;20.27;17.80;;;13.80;99.90;;;;;;5010053;28;20463;-73
2022/05/01 04:25:40;;;;;;;18.53;16.60;;;13.70;99.90;;;;;;5007408;28;20529;-75
2022/05/01 04:28:12;;;;;;;24.20;17.60;;;13.80;99.90;;;;;;5007576;28;20636;-75
2022/05/01 04:30:39;;;;;;;19.80;16.97;;;13.70;99.90;;;;;;5024689;28;20439;-74
2022/05/01 04:33:09;;;;;;;24.27;16.93;;;13.60;99.90;;;;;;5013864;28;20471;-74
2022/05/01 04:35:37;;;;;;;19.30;17.23;;;13.50;99.90;;;;;;5011608;28;20927;-75
2022/05/01 04:38:08;;;;;;;22.20;17.07;;;13.40;99.90;;;;;;5006730;28;20439;-73
2022/05/01 04:40:46;;;;;;;21.43;17.67;;;13.20;99.90;;;;;;5011658;28;21529;-74
2022/05/01 04:43:19;;;;;;;20.37;16.73;;;12.80;99.90;;;;;;5007325;28;20462;-74
2022/05/01 04:45:47;;;;;;;20.70;17.67;;;12.80;99.90;;;;;;5008951;28;20637;-74
2022/05/01 04:48:13;;;;;;;19.63;17.53;;;13.10;99.90;;;;;;5009316;28;20508;-74
2022/05/01 04:50:40;;;;;;;21.63;16.97;;;13.00;99.90;;;;;;5008209;28;20465;-74
2022/05/01 04:53:09;;;;;;;23.83;18.43;;;12.60;99.90;;;;;;5007076;28;20452;-74
2022/05/01 04:55:36;;;;;;;23.60;17.43;;;12.40;99.90;;;;;;5007663;28;20440;-74
2022/05/01 04:58:02;;;;;;;24.93;18.43;;;12.20;99.90;;;;;;5004529;28;20439;-74
2022/05/01 05:00:28;;;;;;;20.40;16.70;;;12.20;99.90;;;;;;5008136;28;20453;-73
2022/05/01 05:02:56;;;;;;;22.73;16.80;;;12.40;99.90;;;;;;5009459;28;21135;-74
2022/05/01 05:05:22;;;;;;;22.87;17.63;;;12.60;99.90;;;;;;5009039;28;20288;-74
2022/05/01 05:07:48;;;;;;;19.20;16.53;;;12.40;99.90;;;;;;5011920;28;20442;-74
2022/05/01 05:10:16;;;;;;;21.17;15.77;;;12.50;99.90;;;;;;5006402;28;20428;-75
2022/05/01 05:12:43;;;;;;;19.70;17.10;;;12.70;99.90;;;;;;5005691;28;20201;-74
2022/05/01 05:15:10;;;;;;;18.70;16.70;;;12.90;99.90;;;;;;5002569;28;20526;-74
2022/05/01 05:17:37;;;;;;;23.23;18.07;;;12.80;99.90;;;;;;5010090;28;20450;-76
2022/05/01 05:20:07;;;;;;;18.87;15.83;;;12.70;99.90;;;;;;5007663;28;20444;-75
2022/05/01 05:22:33;;;;;;;24.67;16.40;;;12.80;99.90;;;;;;5007382;28;21269;-75
2022/05/01 05:24:59;;;;;;;22.83;17.37;;;13.20;99.90;;;;;;5025508;28;20440;-76
2022/05/01 05:27:27;;;;;;;24.17;17.57;;;12.70;99.90;;;;;;5011296;28;20561;-75
2022/05/01 05:29:55;;;;;;;22.20;17.37;;;12.70;99.90;;;;;;5008671;28;20445;-76
2022/05/01 05:32:21;;;;;;;24.13;16.93;;;12.80;99.90;;;;;;5010416;28;20494;-74
2022/05/01 05:34:48;;;;;;;22.07;17.03;;;12.80;99.90;;;;;;5011676;28;20429;-75
2022/05/01 05:37:15;;;;;;;19.03;16.33;;;12.90;99.90;;;;;;5013041;28;20926;-75
2022/05/01 05:39:41;;;;;;;22.33;17.40;;;12.50;99.90;;;;;;5012699;28;20446;-75
2022/05/01 05:42:07;;;;;;;24.53;17.57;;;12.60;99.90;;;;;;5014073;28;20458;-74
2022/05/01 05:44:32;;;;;;;20.20;16.83;;;12.50;99.90;;;;;;5012902;28;20443;-75
2022/05/01 05:46:58;;;;;;;20.27;15.33;;;12.80;99.90;;;;;;5010090;28;20219;-74
2022/05/01 05:49:23;;;;;;;24.60;17.30;;;13.10;99.90;;;;;;5011940;28;20182;-73
2022/05/01 05:51:49;;;;;;;22.73;17.00;;;13.10;99.90;;;;;;5014070;28;20185;-75
2022/05/01 05:54:15;;;;;;;18.30;15.80;;;12.80;99.90;;;;;;5013189;28;20185;-76
2022/05/01 05:56:40;;;;;;;19.77;16.00;;;13.00;99.90;;;;;;5014392;28;20238;-75
2022/05/01 05:59:06;;;;;;;19.80;16.70;;;12.80;99.90;;;;;;5016225;28;20193;-75
2022/05/01 06:01:32;;;;;;;23.60;17.57;;;13.10;99.90;;;;;;5014294;28;20231;-74
2022/05/01 06:03:58;;;;;;;18.97;16.93;;;13.10;99.90;;;;;;5013508;28;20219;-74
2022/05/01 06:06:23;;;;;;;21.87;17.13;;;13.00;99.90;;;;;;5012096;28;20209;-74
2022/05/01 06:08:49;;;;;;;20.10;17.30;;;12.80;99.90;;;;;;5010748;28;20643;-75
2022/05/01 06:11:15;;;;;;;20.47;18.10;;;12.50;99.90;;;;;;5012882;28;20183;-75
2022/05/01 06:13:41;;;;;;;25.43;17.77;;;12.70;99.90;;;;;;5010749;28;20208;-75
2022/05/01 06:16:06;;;;;;;25.03;17.17;;;12.40;99.90;;;;;;5012571;28;20622;-74
2022/05/01 06:18:32;;;;;;;20.73;17.27;;;12.30;99.90;;;;;;5012736;28;20193;-74
2022/05/01 06:20:58;;;;;;;20.97;17.43;;;12.20;99.90;;;;;;5014933;28;20180;-74
2022/05/01 06:23:24;;;;;;;20.63;18.37;;;12.10;99.90;;;;;;5011148;28;20204;-74
2022/05/01 06:25:50;;;;;;;19.00;15.50;;;12.10;99.90;;;;;;5012737;28;20470;-75
2022/05/01 06:28:16;;;;;;;20.47;16.97;;;12.10;99.90;;;;;;5009360;28;20185;-76
2022/05/01 06:30:45;;;;;;;20.93;17.50;;;12.20;99.90;;;;;;5008691;28;20462;-76
2022/05/01 06:33:22;;;;;;;20.80;17.40;;;12.30;99.90;;;;;;5012113;28;20660;-75
2022/05/01 06:35:52;;;;;;;25.07;17.23;;;12.40;99.90;;;;;;5008745;28;20447;-75
2022/05/01 06:38:18;;;;;;;19.60;15.43;;;12.40;99.90;;;;;;5012608;28;20525;-75
2022/05/01 06:40:46;;;;;;;24.53;16.60;;;12.50;99.90;;;;;;5009216;28;20443;-76
2022/05/01 06:43:12;;;;;;;21.70;17.90;;;12.60;99.90;;;;;;5009398;28;20209;-76
2022/05/01 06:45:38;;;;;;;22.60;16.60;;;12.70;99.90;;;;;;5014062;28;20459;-76
2022/05/01 06:48:04;;;;;;;24.30;18.40;;;12.80;99.90;;;;;;5025809;28;20883;-75
2022/05/01 06:50:30;;;;;;;22.53;17.33;;;12.70;99.90;;;;;;5009040;28;20292;-76
2022/05/01 06:52:56;;;;;;;19.33;17.00;;;12.90;99.90;;;;;;5009791;28;20208;-76
2022/05/01 06:55:25;;;;;;;20.93;18.63;;;13.10;99.90;;;;;;5011216;28;20450;-77
2022/05/01 06:57:52;;;;;;;25.20;18.67;;;13.20;99.90;;;;;;5023236;28;20190;-78
2022/05/01 07:00:18;;;;;;;18.30;16.40;;;12.90;99.90;;;;;;5023049;28;20534;-77
2022/05/01 07:02:45;;;;;;;25.80;15.10;;;12.80;99.90;;;;;;5010463;28;20583;-78
2022/05/01 07:05:11;;;;;;;26.80;19.17;;;13.20;99.90;;;;;;5007987;28;20795;-75
2022/05/01 07:07:36;;;;;;;21.20;16.37;;;13.30;99.90;;;;;;5006874;28;20467;-78
2022/05/01 07:10:02;;;;;;;21.13;17.33;;;13.40;99.90;;;;;;5005963;28;20180;-78
2022/05/01 07:12:28;;;;;;;22.10;17.10;;;13.50;99.90;;;;;;5002780;28;20208;-76
2022/05/01 07:14:53;;;;;;;19.97;17.23;;;13.40;99.90;;;;;;5000999;28;20435;-77
2022/05/01 07:17:19;;;;;;;22.90;18.13;;;13.20;99.90;;;;;;5006676;28;20242;-76
2022/05/01 07:19:45;;;;;;;19.87;17.80;;;13.00;99.90;;;;;;5009526;28;20181;-76
2022/05/01 07:22:13;;;;;;;25.07;21.10;;;13.10;99.90;;;;;;5009789;28;20571;-76
2022/05/01 07:24:39;;;;;;;25.27;20.60;;;12.70;99.90;;;;;;5027071;28;20191;-75
2022/05/01 07:27:05;;;;;;;32.80;25.97;;;12.60;99.90;;;;;;5011267;28;21390;-76
2022/05/01 07:29:30;;;;;;;24.60;20.00;;;13.20;99.90;;;;;;5010140;28;20188;-76
2022/05/01 07:31:56;;;;;;;27.30;19.20;;;13.10;99.90;;;;;;5009606;28;20604;-75
2022/05/01 07:34:22;;;;;;;28.87;21.47;;;12.90;99.90;;;;;;5010622;28;20207;-75
2022/05/01 07:36:47;;;;;;;25.63;19.87;;;12.80;99.90;;;;;;5015372;28;20177;-77
2022/05/01 07:39:13;;;;;;;22.60;18.93;;;12.90;99.90;;;;;;5013042;28;20224;-77
2022/05/01 07:41:40;;;;;;;22.37;19.93;;;13.10;99.90;;;;;;5006919;28;20264;-79
2022/05/01 07:44:05;;;;;;;30.00;21.40;;;13.10;99.90;;;;;;5006486;28;20262;-77
2022/05/01 07:46:31;;;;;;;25.63;20.97;;;13.10;99.90;;;;;;5006752;28;20463;-78
2022/05/01 07:48:57;;;;;;;22.20;19.57;;;13.20;99.90;;;;;;5021003;28;20189;-77
2022/05/01 07:51:22;;;;;;;22.20;19.83;;;13.20;99.90;;;;;;5008654;28;20180;-75
2022/05/01 07:53:48;;;;;;;28.33;20.10;;;13.10;99.90;;;;;;5014193;28;20197;-76
2022/05/01 07:56:14;;;;;;;24.60;19.67;;;13.60;99.90;;;;;;5006938;28;20177;-72
2022/05/01 07:58:39;;;;;;;25.23;20.40;;;13.70;99.90;;;;;;5008996;28;20188;-74
2022/05/01 08:01:05;;;;;;;22.97;19.40;;;13.80;99.90;;;;;;5005295;28;20623;-76
2022/05/01 08:06:16;;;;;;;20.67;18.47;;;13.70;99.90;;;;;;5008843;28;20220;-75
2022/05/01 08:08:42;;;;;;;22.90;18.83;;;14.10;99.90;;;;;;5011582;28;20442;-75
2022/05/01 08:11:08;;;;;;;22.23;18.47;;;14.50;99.90;;;;;;5006369;28;20184;-74
2022/05/01 08:13:34;;;;;;;26.00;19.27;;;14.20;99.90;;;;;;5007017;28;20273;-75
2022/05/01 08:16:00;;;;;;;23.40;20.87;;;14.30;99.90;;;;;;5010856;28;20444;-75
2022/05/01 08:21:10;;;;;;;22.83;19.80;;;14.50;99.90;;;;;;5011568;28;20512;-74
2022/05/01 08:23:41;;;;;;;21.03;18.30;;;14.50;99.90;;;;;;5008095;28;20675;-74
2022/05/01 08:26:10;;;;;;;23.47;19.30;;;14.90;99.90;;;;;;5008673;28;20958;-75
2022/05/01 08:28:42;;;;;;;18.53;16.63;;;15.00;99.90;;;;;;5009000;28;20440;-75
2022/05/01 08:31:08;;;;;;;20.43;18.27;;;15.20;99.90;;;;;;5007791;28;21250;-75
2022/05/01 08:33:36;;;;;;;20.43;18.33;;;15.30;99.90;;;;;;5010188;28;20455;-75
2022/05/01 08:36:05;;;;;;;19.83;17.73;;;15.30;99.90;;;;;;5001947;28;20451;-74
2022/05/01 08:38:31;;;;;;;21.13;18.33;;;15.20;99.90;;;;;;5009137;28;20443;-75
2022/05/01 08:40:57;;;;;;;22.73;18.70;;;14.90;99.90;;;;;;5005044;28;20934;-75
2022/05/01 08:43:24;;;;;;;20.43;18.20;;;14.70;99.90;;;;;;5023237;28;20245;-75
2022/05/01 08:45:57;;;;;;;25.17;19.83;;;14.80;99.90;;;;;;5008084;28;20476;-73
2022/05/01 08:49:03;;;;;;;23.10;19.80;;;15.00;99.90;;;;;;5010443;28;20432;-76
2022/05/01 08:51:35;;;;;;;21.00;18.77;;;15.40;99.90;;;;;;5011198;28;20554;-75
2022/05/01 08:54:09;;;;;;;20.70;18.40;;;15.40;99.90;;;;;;5006103;28;20443;-74
2022/05/01 08:56:37;;;;;;;22.80;17.50;;;15.30;99.90;;;;;;5006109;28;20446;-76
2022/05/01 08:59:09;;;;;;;19.67;17.60;;;15.00;99.90;;;;;;5004735;28;20442;-75
2022/05/01 09:01:35;;;;;;;20.07;17.97;;;15.00;99.90;;;;;;5004481;28;20962;-76
2022/05/01 09:04:02;;;;;;;18.73;16.10;;;14.90;99.90;;;;;;5003079;28;20462;-76
2022/05/01 09:06:28;;;;;;;21.30;19.00;;;14.90;99.90;;;;;;5008589;28;20473;-77
2022/05/01 09:08:56;;;;;;;18.50;16.50;;;14.80;99.90;;;;;;5004448;28;20444;-76
2022/05/01 09:14:06;;;;;;;19.93;16.40;;;15.20;99.90;;;;;;5007640;28;20820;-74
2022/05/01 09:16:36;;;;;;;19.07;16.90;;;15.00;99.90;;;;;;5005659;28;20526;-76
2022/05/01 09:19:02;;;;;;;21.00;16.73;;;15.10;99.90;;;;;;5010594;28;20443;-74
2022/05/01 09:21:48;;;;;;;18.43;16.43;;;14.90;99.90;;;;;;5011540;28;20443;-75
2022/05/01 09:24:14;;;;;;;17.70;15.20;;;15.20;99.90;;;;;;5008132;28;20442;-74
2022/05/01 09:26:39;;;;;;;20.30;17.10;;;15.30;99.90;;;;;;5007337;28;20478;-74
2022/05/01 09:29:05;;;;;;;19.73;17.53;;;15.40;99.90;;;;;;5005771;28;20188;-75
2022/05/01 09:31:47;;;;;;;19.30;16.33;;;15.70;99.90;;;;;;5007227;28;20216;-72
2022/05/01 09:34:19;;;;;;;21.20;16.00;;;15.70;99.90;;;;;;5008296;28;20249;-74
2022/05/01 09:36:46;;;;;;;20.33;15.90;;;15.90;99.90;;;;;;5023615;28;20447;-73
2022/05/01 09:39:26;;;;;;;18.70;13.90;;;15.80;99.90;;;;;;5011827;28;20530;-74
2022/05/01 09:41:53;;;;;;;18.00;16.10;;;15.70;99.90;;;;;;5024896;28;20459;-74
2022/05/01 09:44:22;;;;;;;21.17;15.80;;;16.00;99.90;;;;;;5011465;28;20474;-73
2022/05/01 09:46:49;;;;;;;22.00;16.77;;;16.20;99.90;;;;;;5008350;28;20471;-74
2022/05/01 09:49:17;;;;;;;18.83;16.83;;;16.30;99.90;;;;;;5011773;28;20869;-73
2022/05/01 09:51:56;;;;;;;17.20;15.50;;;16.30;99.90;;;;;;5025011;28;20469;-73
2022/05/01 09:54:24;;;;;;;18.13;16.33;;;16.20;99.90;;;;;;5014332;28;20441;-73
2022/05/01 09:57:01;;;;;;;24.00;21.00;;;16.10;99.90;;;;;;5012011;28;20449;-75
2022/05/01 09:59:28;;;;;;;21.40;15.70;;;16.30;99.90;;;;;;5012089;28;20449;-74
2022/05/01 10:02:06;;;;;;;16.87;15.07;;;16.20;99.90;;;;;;5003831;28;20482;-74
2022/05/01 10:04:33;;;;;;;17.10;15.40;;;16.00;99.90;;;;;;5028570;28;20438;-76
2022/05/01 10:07:00;;;;;;;17.03;14.70;;;15.80;99.90;;;;;;5009044;28;20471;-76
2022/05/01 10:09:30;;;;;;;15.30;13.70;;;15.80;99.90;;;;;;5006574;28;20496;-76
2022/05/01 10:12:03;;;;;;;18.20;15.40;;;15.80;99.90;;;;;;5009084;28;20446;-76
2022/05/01 10:14:29;;;;;;;17.50;15.17;;;15.80;99.90;;;;;;5010845;28;20525;-73
2022/05/01 10:16:56;;;;;;;22.87;15.70;;;15.90;99.90;;;;;;5012874;28;21292;-73
2022/05/01 10:19:26;;;;;;;17.10;14.83;;;15.90;99.90;;;;;;5029839;28;20447;-71
2022/05/01 10:22:00;;;;;;;19.03;16.93;;;15.90;99.90;;;;;;5006322;28;20430;-73
2022/05/01 10:24:27;;;;;;;15.90;13.87;;;16.00;99.90;;;;;;5009536;28;20435;-72
2022/05/01 10:27:11;;;;;;;16.00;13.57;;;16.10;99.90;;;;;;5014037;28;21231;-74
2022/05/01 10:29:39;;;;;;;16.90;15.07;;;15.70;99.90;;;;;;5008421;28;20825;-72
2022/05/01 10:32:24;;;;;;;18.13;15.10;;;15.40;99.90;;;;;;5009549;28;20454;-74
2022/05/01 10:35:12;;;;;;;16.20;13.80;;;15.90;99.90;;;;;;5011578;28;20551;-74
2022/05/01 10:37:50;;;;;;;18.70;13.80;;;16.20;99.90;;;;;;5012649;28;20811;-74
2022/05/01 10:40:16;;;;;;;15.60;12.20;;;16.40;99.90;;;;;;5014100;28;20474;-74
2022/05/01 10:42:48;;;;;;;15.73;13.17;;;16.30;99.90;;;;;;5013820;28;20470;-73
2022/05/01 10:45:22;;;;;;;14.17;12.67;;;16.50;99.90;;;;;;5012325;28;20482;-73
2022/05/01 10:47:50;;;;;;;14.67;11.70;;;16.60;99.90;;;;;;5015126;28;20546;-74
2022/05/01 10:50:27;;;;;;;14.63;12.50;;;16.70;99.90;;;;;;5011363;28;20505;-73
2022/05/01 10:53:16;;;;;;;15.33;12.47;;;16.70;99.90;;;;;;5015126;28;20473;-73
2022/05/01 10:55:51;;;;;;;13.90;12.40;;;16.80;99.90;;;;;;5021916;28;20435;-73
2022/05/01 10:58:27;;;;;;;14.97;12.53;;;16.90;99.90;;;;;;5008389;28;20431;-73
2022/05/01 11:00:55;;;;;;;13.50;12.10;;;17.00;99.90;;;;;;5013048;28;21177;-73
2022/05/01 11:03:26;;;;;;;12.60;11.37;;;17.00;99.90;;;;;;5009918;28;20447;-74
2022/05/01 11:05:57;;;;;;;14.57;12.30;;;17.10;99.90;;;;;;4993702;28;20462;-75
2022/05/01 11:08:27;;;;;;;14.23;12.70;;;17.20;99.90;;;;;;4999345;28;21274;-73
2022/05/01 11:10:55;;;;;;;14.57;12.90;;;17.20;99.90;;;;;;5006205;28;20435;-75
2022/05/01 11:13:28;;;;;;;15.90;13.00;;;17.00;99.90;;;;;;5010513;28;20492;-74
2022/05/01 11:15:55;;;;;;;14.27;12.80;;;17.10;99.90;;;;;;5005963;28;20441;-72
2022/05/01 11:18:50;;;;;;;16.97;12.57;;;17.10;99.90;;;;;;5005372;28;20442;-74
2022/05/01 11:21:19;;;;;;;16.67;13.37;;;16.60;99.90;;;;;;4999650;28;20880;-74
2022/05/01 11:23:45;;;;;;;13.50;12.10;;;16.60;99.90;;;;;;5004788;28;20459;-74
2022/05/01 11:26:17;;;;;;;13.77;11.73;;;16.80;99.90;;;;;;5005950;28;20470;-74
2022/05/01 11:28:45;;;;;;;15.63;13.13;;;16.90;99.90;;;;;;5020541;28;20435;-73
2022/05/01 11:31:39;;;;;;;15.33;12.47;;;17.00;99.90;;;;;;5007599;28;20431;-75
2022/05/01 11:34:17;;;;;;;18.20;14.00;;;16.90;99.90;;;;;;5019044;28;20459;-72
2022/05/01 11:36:57;;;;;;;13.80;12.30;;;16.90;99.90;;;;;;5005217;28;20432;-71
2022/05/01 11:39:45;;;;;;;14.63;11.30;;;16.90;99.90;;;;;;5003792;28;20447;-72
2022/05/01 11:42:32;;;;;;;13.00;11.67;;;17.00;99.90;;;;;;5004004;28;20471;-72
2022/05/01 11:45:00;;;;;;;15.50;13.77;;;17.00;99.90;;;;;;5003903;28;20517;-72
2022/05/01 11:47:30;;;;;;;13.90;12.47;;;17.10;99.90;;;;;;5004323;28;23704;-71
2022/05/01 11:49:56;;;;;;;17.03;12.40;;;17.10;99.90;;;;;;5005035;28;21073;-73
2022/05/01 11:52:24;;;;;;;14.23;11.83;;;17.30;99.90;;;;;;5004232;28;20554;-73
2022/05/01 11:54:51;;;;;;;14.20;12.03;;;17.30;99.90;;;;;;5005551;28;20697;-71
2022/05/01 12:03:00;;;;;;;14.77;12.33;;;16.80;99.90;;;;;;5005802;28;20470;-71
2022/05/01 12:05:28;;;;;;;16.97;12.50;;;17.00;99.90;;;;;;5019810;28;20970;-72
2022/05/01 12:07:55;;;;;;;14.90;12.07;;;17.10;99.90;;;;;;5004958;28;20978;-74
2022/05/01 12:10:21;;;;;;;14.97;11.90;;;17.20;99.90;;;;;;5020569;28;20653;-74
2022/05/01 12:12:46;;;;;;;14.63;12.53;;;17.10;99.90;;;;;;5007159;28;20459;-73
2022/05/01 12:15:12;;;;;;;15.20;12.43;;;16.90;99.90;;;;;;5003613;28;20544;-72
2022/05/01 12:17:42;;;;;;;14.10;12.17;;;17.00;99.90;;;;;;5004173;28;20644;-71
2022/05/01 12:20:08;;;;;;;17.83;12.17;;;17.10;99.90;;;;;;5002529;28;20188;-71
2022/05/01 12:22:40;;;;;;;14.60;11.73;;;17.30;99.90;;;;;;5005353;28;20490;-71
2022/05/01 12:25:11;;;;;;;11.93;10.73;;;17.40;99.90;;;;;;5005889;28;20437;-74
2022/05/01 12:27:41;;;;;;;14.43;12.07;;;17.40;99.90;;;;;;5009421;28;20467;-74
2022/05/01 12:30:08;;;;;;;10.57;9.57;;;17.40;99.90;;;;;;5006791;28;20798;-72
2022/05/01 12:32:35;;;;;;;13.27;10.40;;;17.50;99.90;;;;;;5005400;28;21040;-74
2022/05/01 12:35:03;;;;;;;12.50;10.60;;;17.60;99.90;;;;;;5003054;28;20541;-72
2022/05/01 12:37:32;;;;;;;12.07;10.93;;;17.50;99.90;;;;;;5002498;28;20443;-73
2022/05/01 12:40:09;;;;;;;13.63;10.63;;;17.60;99.90;;;;;;5002962;28;20447;-75
2022/05/01 12:45:41;;;;;;;16.83;11.57;;;17.60;99.90;;;;;;5008359;28;20893;-72
2022/05/01 12:48:09;;;;;;;13.27;11.03;;;17.70;99.90;;;;;;5010660;28;20435;-73
2022/05/01 12:50:38;;;;;;;15.30;11.40;;;17.80;99.90;;;;;;5011874;28;20458;-73
2022/05/01 12:53:22;;;;;;;12.50;11.10;;;17.80;99.90;;;;;;5011258;28;20490;-73
2022/05/01 12:55:48;;;;;;;12.70;11.37;;;17.80;99.90;;;;;;5007829;28;20586;-74
2022/05/01 12:58:14;;;;;;;13.20;11.63;;;17.90;99.90;;;;;;5009840;28;20439;-71